Mayerthorpe (Healthcare Centre) Heliport

CA-1037 · 艾伯塔, 加拿大

使用的METAR站距离机场48 NM。
罗盘
风向 的 风向 280° 直升机
风向 到 风: 10 kt, 阵阵 17 kt, 3 beaufort
0 ft 5.000 10.000 15.000 20.000
Cloud Cloud Cloud Cloud Cloud Cloud Cloud Cloud
OVC 11.000
METAR CZVL 290900Z AUTO 28010G17KT 9SM OVC110 12/08 A2962 RMK SLP031 DENSITY ALT 2900FT

METAR Mayerthorpe (Healthcare Centre) Heliport - CA-1037

Mayerthorpe (Healthcare Centre) Heliport是,加拿大中的直升机场。 该机场位于纬度53,94800和经度-115,13200。 这个机场没有ICAO代码,我们使用CA-1037作为参考。 机场在Edmonton FIR中。

该航空气象观测是针对Edmonton / Villeneuve Airport在2024年5月29日 03:00, 当地时间进行的。

机场观察

风向为280°,速度为10 kt。 已测得17 kt的阵风。

可见度为9 mi。

有乌云密布在11.000 ft的高度。 破损或更高的上限为11.000 ft。

温度和风寒是12 °C。 露点为8 °C,相对湿度为77%。 海平面上的气压为29,62 inHg (QNH)。

白天

今天,太阳从05:17升起,在21:58降落。 这适用于Mayerthorpe (Healthcare Centre) Heliport,世界夏令时可能有所不同。 当地时间与世界标准时间之间的时差为-6 小时。 夏令时目前正在进行中。

公司介绍

我们没有关于这个机场的公司信息。

体会

到Vliegles.nl去找飞行课程,跳伞和其他飞行体验。 浏览页面,了解Mayerthorpe (Healthcare Centre) Heliport附近所有可用的活动。 你也可以使用搜索功能来寻找你所在地附近的特定飞行课程、跳伞或其他飞行体验。

乌云

11.000 ft OVC 乌云密布

温度 & 天气

温度 12 °C
露点 8 °C
相对湿度 77%
Kp-index 0 (0-9)

评论

SLP031海平面压力为29,62 inHg (29,62 inHg)
DENSITY ALT 2900FT

白天

日出
05:13 (1:45)
中午
13:32
日落
21:52

小工具

你想在你的网站上有一个关于Mayerthorpe (Healthcare Centre) Heliport的当前航空天气(METAR)的小部件吗?

显示HTML代码
报告变更